createdAt,value
2018-01-26T00:00:04.382Z,-1.79
2018-01-26T00:02:30.784Z,-1.77
2018-01-26T00:04:57.217Z,-1.79
2018-01-26T00:07:23.699Z,-1.99
2018-01-26T00:09:50.066Z,-1.80
2018-01-26T00:12:16.598Z,-1.75
2018-01-26T00:14:43.051Z,-1.72
2018-01-26T00:17:09.476Z,-1.65
2018-01-26T00:19:36.097Z,-1.70
2018-01-26T00:22:02.566Z,-1.70
2018-01-26T00:24:29.042Z,-1.65
2018-01-26T00:26:55.571Z,-1.74
2018-01-26T00:29:21.945Z,-1.75
2018-01-26T00:31:48.417Z,-1.72
2018-01-26T00:34:14.859Z,-1.70
2018-01-26T00:36:41.230Z,-1.88
2018-01-26T00:39:07.629Z,-1.85
2018-01-26T00:41:34.094Z,-1.72
2018-01-26T00:44:00.562Z,-1.62
2018-01-26T00:46:26.932Z,-1.55
2018-01-26T00:48:53.526Z,-1.61
2018-01-26T00:51:20.085Z,-1.63
2018-01-26T00:53:46.565Z,-1.78
2018-01-26T00:56:13.055Z,-1.90
2018-01-26T00:58:39.529Z,-2.06
2018-01-26T01:01:05.942Z,-2.23
2018-01-26T01:03:32.348Z,-1.83
2018-01-26T01:05:58.788Z,-1.96
2018-01-26T01:08:25.181Z,-1.95
2018-01-26T01:10:51.597Z,-1.73
2018-01-26T01:13:18.053Z,-1.81
2018-01-26T01:15:44.469Z,-1.98
2018-01-26T01:18:10.884Z,-1.83
2018-01-26T01:20:37.519Z,-1.93
2018-01-26T01:23:04.046Z,-2.05
2018-01-26T01:25:36.376Z,-2.09
2018-01-26T01:28:02.786Z,-2.23
2018-01-26T01:30:29.217Z,-2.13
2018-01-26T01:33:01.708Z,-2.16
2018-01-26T01:35:28.193Z,-2.14
2018-01-26T01:37:54.669Z,-2.30
2018-01-26T01:40:27.100Z,-2.28
2018-01-26T01:42:53.573Z,-2.31
2018-01-26T01:45:25.957Z,-2.30
2018-01-26T01:47:58.406Z,-2.36
2018-01-26T01:50:30.788Z,-2.37
2018-01-26T01:52:57.205Z,-2.48
2018-01-26T01:55:23.657Z,-2.68
2018-01-26T01:58:02.192Z,-2.63
2018-01-26T02:00:28.687Z,-2.38
2018-01-26T02:02:55.119Z,-2.31
2018-01-26T02:05:27.516Z,-2.28
2018-01-26T02:07:53.970Z,-2.32
2018-01-26T02:10:20.404Z,-2.27
2018-01-26T02:12:46.906Z,-2.28
2018-01-26T02:15:13.290Z,-2.49
2018-01-26T02:17:51.829Z,-2.48
2018-01-26T02:20:24.210Z,-2.37
2018-01-26T02:22:56.665Z,-2.55
2018-01-26T02:25:35.069Z,-2.61
2018-01-26T02:28:01.537Z,-2.35
2018-01-26T02:30:28.016Z,-2.23
2018-01-26T02:32:54.397Z,-2.12
2018-01-26T02:35:20.811Z,-2.09
2018-01-26T02:37:53.258Z,-2.07
2018-01-26T02:40:25.781Z,-2.27
2018-01-26T02:42:52.397Z,-2.25
2018-01-26T02:45:24.801Z,-2.39
2018-01-26T02:47:57.185Z,-2.31
2018-01-26T02:50:23.608Z,-2.37
2018-01-26T02:52:50.033Z,-2.31
2018-01-26T02:55:22.649Z,-2.23
2018-01-26T02:57:49.140Z,-2.19
2018-01-26T03:00:15.617Z,-2.25
2018-01-26T03:02:48.229Z,-2.21
2018-01-26T03:05:14.681Z,-2.29
2018-01-26T03:07:53.069Z,-2.28
2018-01-26T03:10:25.534Z,-2.33
2018-01-26T03:12:58.189Z,-2.34
2018-01-26T03:15:24.557Z,-2.27
2018-01-26T03:18:03.241Z,-2.33
2018-01-26T03:20:41.745Z,-2.43
2018-01-26T03:23:08.313Z,-2.49
2018-01-26T03:25:34.782Z,-2.52
2018-01-26T03:28:07.220Z,-2.49
2018-01-26T03:30:39.513Z,-2.39
2018-01-26T03:33:11.858Z,-2.60
2018-01-26T03:35:38.237Z,-2.41
2018-01-26T03:38:10.825Z,-2.53
2018-01-26T03:40:43.391Z,-2.53
2018-01-26T03:43:15.836Z,-2.51
2018-01-26T03:45:48.140Z,-2.43
2018-01-26T03:48:20.545Z,-2.57
2018-01-26T03:50:47.037Z,-2.34
2018-01-26T03:53:25.629Z,-2.37
2018-01-26T03:55:52.241Z,-2.65
2018-01-26T03:58:18.688Z,-2.65
2018-01-26T04:00:45.118Z,-2.67
2018-01-26T04:03:11.557Z,-2.79
2018-01-26T04:05:37.965Z,-2.84
2018-01-26T04:08:16.321Z,-2.54
2018-01-26T04:10:48.664Z,-2.59
2018-01-26T04:13:21.140Z,-2.62
2018-01-26T04:15:47.623Z,-2.90
2018-01-26T04:18:14.085Z,-2.67
2018-01-26T04:20:46.633Z,-2.52
2018-01-26T04:23:25.185Z,-2.49
2018-01-26T04:25:58.017Z,-2.56
2018-01-26T04:28:24.617Z,-2.99
2018-01-26T04:30:51.085Z,-2.74
2018-01-26T04:33:17.627Z,-2.83
2018-01-26T04:35:50.153Z,-2.74
2018-01-26T04:38:16.697Z,-2.67
2018-01-26T04:40:43.186Z,-3.07
2018-01-26T04:43:09.652Z,-2.97
2018-01-26T04:45:48.316Z,-2.71
2018-01-26T04:48:14.750Z,-2.66
2018-01-26T04:50:53.174Z,-2.73
2018-01-26T04:53:25.673Z,-2.75
2018-01-26T04:55:52.148Z,-2.74
2018-01-26T04:58:24.525Z,-2.80
2018-01-26T05:00:57.222Z,-3.12
2018-01-26T05:03:23.684Z,-2.79
2018-01-26T05:06:02.253Z,-2.80
2018-01-26T05:08:34.797Z,-3.06
2018-01-26T05:11:01.274Z,-2.86
2018-01-26T05:13:33.891Z,-3.05
2018-01-26T05:16:06.193Z,-3.50
2018-01-26T05:18:32.699Z,-3.20
2018-01-26T05:21:17.393Z,-3.14
2018-01-26T05:23:49.716Z,-3.26
2018-01-26T05:26:22.261Z,-3.14
2018-01-26T05:28:54.809Z,-3.11
2018-01-26T05:31:33.384Z,-3.19
2018-01-26T05:33:59.820Z,-3.01
2018-01-26T05:36:32.208Z,-2.88
2018-01-26T05:38:58.664Z,-3.18
2018-01-26T05:41:31.065Z,-3.31
2018-01-26T05:44:03.443Z,-3.26
2018-01-26T05:46:29.890Z,-3.07
2018-01-26T05:49:02.349Z,-2.98
2018-01-26T05:51:40.657Z,-2.85
2018-01-26T05:54:13.089Z,-3.06
2018-01-26T05:56:39.613Z,-2.81
2018-01-26T05:59:11.999Z,-2.78
2018-01-26T06:01:44.781Z,-2.84
2018-01-26T06:04:11.141Z,-2.82
2018-01-26T06:06:43.800Z,-2.82
2018-01-26T06:09:16.105Z,-2.91
2018-01-26T06:11:48.653Z,-2.81
2018-01-26T06:14:27.201Z,-2.85
2018-01-26T06:16:54.329Z,-3.04
2018-01-26T06:19:26.929Z,-3.05
2018-01-26T06:21:53.561Z,-3.38
2018-01-26T06:24:19.987Z,-3.00
2018-01-26T06:26:52.536Z,-3.23
2018-01-26T06:29:19.067Z,-2.99
2018-01-26T06:31:51.610Z,-3.00
2018-01-26T06:34:17.972Z,-2.86
2018-01-26T06:36:50.438Z,-2.80
2018-01-26T06:39:29.056Z,-2.69
2018-01-26T06:41:55.525Z,-2.43
2018-01-26T06:44:28.010Z,-2.32
2018-01-26T06:47:00.614Z,-2.25
2018-01-26T06:49:27.237Z,-2.22
2018-01-26T06:51:53.713Z,-2.22
2018-01-26T06:54:20.201Z,-2.18
2018-01-26T06:56:46.626Z,-2.29
2018-01-26T06:59:13.050Z,-2.03
2018-01-26T07:01:51.505Z,-1.91
2018-01-26T07:04:24.041Z,-2.07
2018-01-26T07:06:50.469Z,-1.94
2018-01-26T07:09:29.057Z,-1.95
2018-01-26T07:11:55.488Z,-1.89
2018-01-26T07:14:27.950Z,-1.79
2018-01-26T07:17:00.337Z,-1.61
2018-01-26T07:19:26.789Z,-1.44
2018-01-26T07:21:59.270Z,-1.36
2018-01-26T07:24:25.732Z,-1.17
2018-01-26T07:26:52.134Z,-1.07
2018-01-26T07:29:24.627Z,-0.93
2018-01-26T07:31:51.095Z,-0.81
2018-01-26T07:34:23.495Z,-0.67
2018-01-26T07:37:02.216Z,-0.64
2018-01-26T07:39:28.609Z,-0.47
2018-01-26T07:41:55.018Z,-0.39
2018-01-26T07:44:27.490Z,-0.30
2018-01-26T07:46:54.037Z,-0.38
2018-01-26T07:49:27.139Z,-0.23
2018-01-26T07:51:59.686Z,-0.18
2018-01-26T07:54:32.185Z,-0.16
2018-01-26T07:56:58.645Z,-0.10
2018-01-26T07:59:31.273Z,-0.06
2018-01-26T08:01:57.669Z,0.08
2018-01-26T08:04:30.281Z,0.03
2018-01-26T08:06:56.876Z,0.28
2018-01-26T08:09:29.539Z,0.43
2018-01-26T08:12:02.051Z,0.51
2018-01-26T08:14:34.402Z,0.67
2018-01-26T08:17:00.833Z,0.76
2018-01-26T08:19:39.502Z,0.83
2018-01-26T08:22:11.969Z,0.99
2018-01-26T08:24:50.417Z,1.16
2018-01-26T08:27:16.837Z,1.28
2018-01-26T08:29:43.290Z,1.46
2018-01-26T08:32:16.048Z,1.56
2018-01-26T08:34:54.833Z,1.68
2018-01-26T08:37:21.301Z,1.71
2018-01-26T08:39:47.858Z,1.81
2018-01-26T08:42:14.273Z,1.83
2018-01-26T08:44:46.759Z,1.97
2018-01-26T08:47:19.164Z,2.01
2018-01-26T08:49:45.565Z,1.99
2018-01-26T08:52:18.174Z,1.96
2018-01-26T08:54:50.545Z,2.23
2018-01-26T08:57:16.945Z,2.16
2018-01-26T08:59:49.385Z,2.29
2018-01-26T09:02:15.911Z,2.42
2018-01-26T09:05:00.490Z,2.56
2018-01-26T09:07:33.044Z,2.54
2018-01-26T09:09:59.565Z,2.56
2018-01-26T09:12:37.969Z,2.74
2018-01-26T09:15:04.486Z,2.70
2018-01-26T09:17:36.958Z,2.75
2018-01-26T09:20:03.484Z,2.73
2018-01-26T09:22:29.913Z,2.55
2018-01-26T09:25:02.381Z,2.57
2018-01-26T09:27:28.791Z,2.73
2018-01-26T09:30:01.335Z,2.86
2018-01-26T09:32:27.863Z,2.98
2018-01-26T09:35:00.141Z,2.93
2018-01-26T09:37:38.743Z,3.07
2018-01-26T09:40:17.565Z,3.17
2018-01-26T09:42:50.117Z,3.34
2018-01-26T09:45:28.701Z,3.30
2018-01-26T09:47:55.126Z,3.35
2018-01-26T09:50:21.522Z,3.32
2018-01-26T09:52:53.993Z,3.35
2018-01-26T09:55:32.408Z,3.36
2018-01-26T09:57:58.889Z,3.40
2018-01-26T10:00:25.229Z,3.23
2018-01-26T10:02:57.769Z,3.45
2018-01-26T10:05:24.160Z,3.43
2018-01-26T10:07:50.709Z,3.43
2018-01-26T10:10:23.053Z,3.73
2018-01-26T10:12:49.583Z,3.64
2018-01-26T10:15:22.250Z,3.50
2018-01-26T10:17:54.566Z,3.47
2018-01-26T10:20:27.173Z,3.75
2018-01-26T10:22:59.698Z,3.82
2018-01-26T10:25:37.961Z,3.66
2018-01-26T10:28:16.333Z,3.93
2018-01-26T10:30:42.709Z,4.03
2018-01-26T10:33:15.133Z,3.96
2018-01-26T10:35:41.554Z,4.07
2018-01-26T10:38:07.933Z,3.96
2018-01-26T10:40:34.326Z,3.90
2018-01-26T10:43:00.664Z,3.91
2018-01-26T10:45:27.244Z,4.06
2018-01-26T10:47:59.785Z,4.20
2018-01-26T10:50:26.170Z,4.06
2018-01-26T10:52:52.545Z,3.93
2018-01-26T10:55:18.920Z,4.18
2018-01-26T10:57:45.284Z,4.36
2018-01-26T11:00:11.516Z,4.19
2018-01-26T11:02:44.116Z,4.27
2018-01-26T11:05:10.362Z,4.43
2018-01-26T11:07:36.591Z,4.40
2018-01-26T11:10:02.800Z,4.45
2018-01-26T11:12:28.964Z,4.45
2018-01-26T11:14:55.173Z,4.29
2018-01-26T11:17:21.380Z,4.49
2018-01-26T11:19:47.549Z,4.38
2018-01-26T11:22:13.772Z,4.60
2018-01-26T11:24:39.976Z,4.69
2018-01-26T11:27:06.241Z,4.42
2018-01-26T11:29:32.460Z,4.52
2018-01-26T11:31:58.654Z,4.36
2018-01-26T11:34:24.875Z,4.36
2018-01-26T11:36:51.045Z,4.66
2018-01-26T11:39:17.225Z,4.50
2018-01-26T11:41:43.445Z,4.52
2018-01-26T11:44:09.604Z,4.62
2018-01-26T11:46:35.831Z,4.55
2018-01-26T11:49:02.310Z,4.59
2018-01-26T11:51:28.489Z,4.43
2018-01-26T11:53:54.703Z,4.59
2018-01-26T11:56:21.025Z,4.71
2018-01-26T11:58:47.177Z,4.44
2018-01-26T12:01:13.350Z,4.51
2018-01-26T12:03:39.557Z,4.33
2018-01-26T12:06:05.734Z,4.46
2018-01-26T12:08:31.988Z,4.67
2018-01-26T12:10:58.209Z,4.87
2018-01-26T12:13:24.377Z,4.86
2018-01-26T12:15:50.568Z,4.82
2018-01-26T12:18:16.784Z,4.76
2018-01-26T12:20:42.973Z,4.70
2018-01-26T12:23:09.205Z,4.67
2018-01-26T12:25:35.513Z,4.78
2018-01-26T12:28:01.736Z,4.80
2018-01-26T12:30:28.006Z,4.98
2018-01-26T12:32:54.244Z,5.13
2018-01-26T12:35:20.405Z,5.11
2018-01-26T12:37:46.581Z,5.14
2018-01-26T12:40:12.799Z,4.97
2018-01-26T12:42:38.967Z,4.96
2018-01-26T12:45:05.132Z,4.90
2018-01-26T12:47:31.357Z,4.96
2018-01-26T12:49:57.521Z,4.85
2018-01-26T12:52:23.681Z,4.94
2018-01-26T12:54:49.900Z,4.84
2018-01-26T12:57:16.090Z,4.93
2018-01-26T12:59:42.277Z,4.93
2018-01-26T13:02:08.554Z,4.96
2018-01-26T13:04:34.837Z,4.92
2018-01-26T13:07:01.016Z,4.92
2018-01-26T13:09:27.188Z,5.03
2018-01-26T13:11:53.416Z,5.01
2018-01-26T13:14:19.586Z,5.05
2018-01-26T13:16:45.748Z,5.05
2018-01-26T13:19:13.581Z,5.09
2018-01-26T13:21:40.044Z,5.01
2018-01-26T13:24:06.216Z,5.00
2018-01-26T13:26:32.432Z,5.07
2018-01-26T13:28:58.648Z,5.02
2018-01-26T13:31:24.824Z,5.08
2018-01-26T13:33:51.013Z,4.96
2018-01-26T13:36:17.197Z,5.00
2018-01-26T13:38:43.376Z,5.06
2018-01-26T13:41:09.611Z,5.06
2018-01-26T13:43:35.975Z,5.06
2018-01-26T13:46:02.157Z,5.04
2018-01-26T13:48:28.332Z,5.01
2018-01-26T13:50:54.561Z,5.02
2018-01-26T13:53:20.713Z,5.02
2018-01-26T13:55:46.881Z,5.06
2018-01-26T13:58:13.257Z,5.06
2018-01-26T14:00:39.416Z,5.00
2018-01-26T14:03:05.608Z,4.96
2018-01-26T14:05:31.794Z,4.68
2018-01-26T14:07:58.020Z,4.87
2018-01-26T14:10:24.181Z,4.89
2018-01-26T14:12:50.376Z,4.94
2018-01-26T14:15:16.553Z,4.98
2018-01-26T14:17:42.708Z,4.98
2018-01-26T14:20:09.147Z,4.97
2018-01-26T14:22:35.301Z,4.99
2018-01-26T14:25:01.469Z,4.99
2018-01-26T14:27:27.644Z,4.99
2018-01-26T14:29:53.850Z,4.96
2018-01-26T14:32:20.028Z,4.95
2018-01-26T14:34:46.188Z,4.91
2018-01-26T14:37:12.422Z,4.91
2018-01-26T14:39:38.662Z,4.89
2018-01-26T14:42:04.864Z,4.87
2018-01-26T14:44:31.080Z,4.84
2018-01-26T14:46:57.345Z,4.82
2018-01-26T14:49:23.528Z,4.83
2018-01-26T14:51:49.724Z,4.81
2018-01-26T14:54:15.881Z,4.79
2018-01-26T14:56:42.041Z,4.75
2018-01-26T14:59:08.200Z,4.70
2018-01-26T15:01:34.580Z,4.73
2018-01-26T15:04:00.784Z,4.71
2018-01-26T15:06:26.949Z,4.70
2018-01-26T15:08:53.140Z,4.70
2018-01-26T15:11:19.344Z,4.67
2018-01-26T15:13:45.702Z,4.65
2018-01-26T15:16:11.922Z,4.62
2018-01-26T15:18:38.085Z,4.57
2018-01-26T15:21:04.255Z,4.53
2018-01-26T15:23:30.565Z,4.53
2018-01-26T15:25:56.792Z,4.49
2018-01-26T15:28:23.031Z,4.49
2018-01-26T15:30:49.269Z,4.45
2018-01-26T15:33:15.433Z,4.42
2018-01-26T15:35:41.870Z,4.39
2018-01-26T15:38:08.024Z,4.36
2018-01-26T15:40:34.188Z,4.31
2018-01-26T15:43:00.381Z,4.27
2018-01-26T15:45:26.540Z,4.24
2018-01-26T15:47:52.692Z,4.21
2018-01-26T15:50:18.877Z,4.18
2018-01-26T15:52:45.061Z,4.14
2018-01-26T15:55:11.228Z,4.13
2018-01-26T15:57:37.437Z,4.12
2018-01-26T16:00:03.632Z,4.08
2018-01-26T16:02:30.036Z,4.06
2018-01-26T16:04:56.620Z,4.05
2018-01-26T16:07:23.077Z,4.03
2018-01-26T16:09:49.305Z,3.95
2018-01-26T16:12:15.524Z,3.93
2018-01-26T16:14:41.718Z,3.88
2018-01-26T16:17:07.886Z,3.90
2018-01-26T16:19:34.125Z,3.86
2018-01-26T16:22:00.339Z,3.81
2018-01-26T16:24:26.500Z,3.73
2018-01-26T16:26:52.725Z,3.67
2018-01-26T16:29:18.888Z,3.68
2018-01-26T16:31:45.242Z,3.64
2018-01-26T16:34:11.481Z,3.58
2018-01-26T16:36:37.667Z,3.52
2018-01-26T16:39:03.901Z,3.45
2018-01-26T16:41:30.273Z,3.38
2018-01-26T16:43:56.433Z,3.39
2018-01-26T16:46:22.608Z,3.14
2018-01-26T16:48:48.805Z,3.32
2018-01-26T16:51:14.969Z,3.29
2018-01-26T16:53:41.176Z,3.27
2018-01-26T16:56:07.368Z,3.18
2018-01-26T16:58:33.577Z,3.21
2018-01-26T17:00:59.750Z,3.21
2018-01-26T17:03:26.056Z,3.20
2018-01-26T17:05:52.224Z,3.17
2018-01-26T17:08:18.385Z,3.16
2018-01-26T17:10:44.593Z,3.02
2018-01-26T17:13:10.772Z,2.88
2018-01-26T17:15:36.989Z,2.93
2018-01-26T17:18:03.238Z,2.98
2018-01-26T17:20:29.408Z,2.98
2018-01-26T17:22:55.625Z,2.89
2018-01-26T17:25:21.804Z,2.89
2018-01-26T17:27:48.040Z,2.81
2018-01-26T17:30:14.285Z,2.58
2018-01-26T17:32:40.442Z,2.56
2018-01-26T17:35:06.648Z,2.48
2018-01-26T17:37:33.411Z,2.44
2018-01-26T17:39:59.633Z,2.37
2018-01-26T17:42:25.836Z,2.41
2018-01-26T17:44:51.996Z,2.42
2018-01-26T17:47:18.168Z,2.34
2018-01-26T17:49:44.393Z,2.26
2018-01-26T17:52:10.596Z,2.22
2018-01-26T17:54:36.808Z,2.24
2018-01-26T17:57:03.097Z,2.23
2018-01-26T17:59:29.312Z,2.18
2018-01-26T18:01:55.492Z,2.11
2018-01-26T18:04:21.721Z,2.14
2018-01-26T18:06:47.894Z,2.17
2018-01-26T18:09:14.100Z,2.19
2018-01-26T18:11:40.305Z,1.98
2018-01-26T18:14:06.561Z,1.85
2018-01-26T18:16:32.891Z,1.72
2018-01-26T18:18:59.073Z,1.81
2018-01-26T18:21:25.236Z,1.58
2018-01-26T18:23:51.434Z,1.66
2018-01-26T18:26:17.592Z,1.55
2018-01-26T18:28:43.773Z,1.50
2018-01-26T18:31:09.976Z,1.35
2018-01-26T18:33:36.152Z,1.50
2018-01-26T18:36:02.357Z,1.33
2018-01-26T18:38:28.609Z,1.08
2018-01-26T18:40:54.776Z,1.24
2018-01-26T18:43:20.936Z,1.24
2018-01-26T18:45:47.169Z,1.22
2018-01-26T18:48:13.324Z,0.97
2018-01-26T18:50:39.489Z,1.01
2018-01-26T18:53:05.721Z,1.05
2018-01-26T18:55:31.893Z,1.06
2018-01-26T18:57:58.049Z,1.16
2018-01-26T19:00:24.255Z,0.92
2018-01-26T19:02:50.425Z,1.09
2018-01-26T19:05:16.575Z,0.91
2018-01-26T19:07:42.727Z,1.11
2018-01-26T19:10:10.569Z,1.10
2018-01-26T19:12:36.711Z,0.97
2018-01-26T19:15:02.901Z,1.04
2018-01-26T19:17:30.689Z,0.98
2018-01-26T19:19:56.888Z,0.97
2018-01-26T19:22:23.027Z,1.00
2018-01-26T19:24:49.235Z,1.03
2018-01-26T19:27:15.411Z,1.12
2018-01-26T19:29:41.554Z,1.09
2018-01-26T19:32:07.851Z,1.07
2018-01-26T19:34:33.994Z,0.96
2018-01-26T19:37:00.205Z,0.67
2018-01-26T19:39:26.403Z,0.71
2018-01-26T19:41:52.578Z,0.83
2018-01-26T19:44:18.734Z,0.89
2018-01-26T19:46:44.932Z,0.92
2018-01-26T19:49:11.121Z,0.82
2018-01-26T19:51:37.272Z,0.95
2018-01-26T19:54:03.483Z,0.94
2018-01-26T19:56:29.622Z,0.73
2018-01-26T19:58:55.768Z,0.87
2018-01-26T20:01:21.965Z,0.77
2018-01-26T20:03:54.267Z,0.76
2018-01-26T20:06:46.480Z,0.75
2018-01-26T20:09:12.570Z,0.72
2018-01-26T20:11:38.755Z,0.60
2018-01-26T20:14:05.000Z,0.62
2018-01-26T20:16:31.211Z,0.59
2018-01-26T20:18:57.358Z,0.71
2018-01-26T20:21:24.503Z,0.63
2018-01-26T20:23:50.658Z,0.56
2018-01-26T20:26:16.995Z,0.46
2018-01-26T20:28:43.208Z,0.58
2018-01-26T20:31:09.383Z,0.57
2018-01-26T20:33:35.527Z,0.41
2018-01-26T20:36:01.725Z,0.32
2018-01-26T20:38:27.968Z,0.28
2018-01-26T20:40:54.150Z,0.34
2018-01-26T20:43:20.424Z,0.41
2018-01-26T20:45:46.567Z,0.21
2018-01-26T20:48:12.728Z,-0.18
2018-01-26T20:50:38.912Z,-0.18
2018-01-26T20:53:05.063Z,-0.09
2018-01-26T20:55:31.361Z,0.00
2018-01-26T20:57:57.511Z,0.05
2018-01-26T21:00:23.752Z,0.07
2018-01-26T21:02:49.941Z,0.20
2018-01-26T21:05:16.091Z,0.22
2018-01-26T21:07:43.832Z,-0.13
2018-01-26T21:10:09.983Z,0.06
2018-01-26T21:12:36.135Z,0.09
2018-01-26T21:15:02.382Z,-0.26
2018-01-26T21:17:28.541Z,0.04
2018-01-26T21:19:54.674Z,0.09
2018-01-26T21:22:20.897Z,-0.09
2018-01-26T21:24:47.040Z,-0.03
2018-01-26T21:27:13.187Z,0.10
2018-01-26T21:29:39.403Z,-0.16
2018-01-26T21:32:05.613Z,-0.02
2018-01-26T21:34:31.763Z,-0.04
2018-01-26T21:36:57.927Z,-0.03
2018-01-26T21:39:24.062Z,-0.04
2018-01-26T21:41:50.290Z,-0.10
2018-01-26T21:44:16.438Z,-0.03
2018-01-26T21:46:42.583Z,-0.09
2018-01-26T21:49:08.718Z,-0.07
2018-01-26T21:51:34.879Z,0.09
2018-01-26T21:54:01.018Z,0.11
2018-01-26T21:56:27.219Z,0.07
2018-01-26T21:58:53.359Z,-0.03
2018-01-26T22:01:19.524Z,-0.20
2018-01-26T22:03:45.757Z,-0.05
2018-01-26T22:06:18.154Z,-0.18
2018-01-26T22:08:44.335Z,-0.24
2018-01-26T22:11:10.522Z,-0.45
2018-01-26T22:13:36.671Z,-0.28
2018-01-26T22:16:02.842Z,-0.29
2018-01-26T22:18:29.075Z,-0.19
2018-01-26T22:20:55.239Z,-0.21
2018-01-26T22:23:21.389Z,-0.24
2018-01-26T22:25:47.576Z,-0.36
2018-01-26T22:28:13.719Z,-0.31
2018-01-26T22:30:39.878Z,-0.19
2018-01-26T22:33:06.046Z,-0.24
2018-01-26T22:35:32.191Z,-0.39
2018-01-26T22:37:58.430Z,-0.30
2018-01-26T22:40:24.578Z,-0.29
2018-01-26T22:42:50.732Z,-0.26
2018-01-26T22:45:16.970Z,-0.30
2018-01-26T22:47:43.190Z,-0.56
2018-01-26T22:50:09.347Z,-0.47
2018-01-26T22:52:35.526Z,-0.40
2018-01-26T22:55:01.670Z,-0.19
2018-01-26T22:57:27.898Z,-0.33
2018-01-26T22:59:54.210Z,-0.60
2018-01-26T23:02:20.367Z,-0.62
2018-01-26T23:04:46.539Z,-0.52
2018-01-26T23:07:12.693Z,-0.41
2018-01-26T23:09:38.887Z,-0.28
2018-01-26T23:12:05.039Z,-0.36
2018-01-26T23:14:31.180Z,-0.25
2018-01-26T23:16:57.407Z,-0.16
2018-01-26T23:19:23.558Z,-0.60
2018-01-26T23:21:49.746Z,-0.51
2018-01-26T23:24:15.927Z,-0.94
2018-01-26T23:26:42.054Z,-0.97
2018-01-26T23:29:08.210Z,-0.69
2018-01-26T23:31:34.407Z,-0.44
2018-01-26T23:34:00.535Z,-0.47
2018-01-26T23:36:26.698Z,-0.36
2018-01-26T23:38:52.963Z,-0.42
2018-01-26T23:41:19.147Z,-0.40
2018-01-26T23:43:45.295Z,-0.28
2018-01-26T23:46:11.471Z,-0.31
2018-01-26T23:48:37.606Z,-0.50
2018-01-26T23:51:03.806Z,-0.42
2018-01-26T23:53:29.982Z,-0.49
2018-01-26T23:55:56.123Z,-0.62
2018-01-26T23:58:22.254Z,-0.87
